Time;durP1;ratioP1;P1;durP2;ratioP2;P2;SDS_P1;SDS_P2;PMS_P1;PMS_P2;Temp;Humidity;BMP_temperature;BMP_pressure;BME280_temperature;BME280_humidity;BME280_pressure;Samples;Min_cycle;Max_cycle;Signal;HPM_P1;HPM_P2
2021/08/30 00:01:43;;;;;;;;;;;25.30;99.90;;;;;;1895676;74;20164;-92
2021/08/30 00:04:24;;;;;;;;;;;25.30;99.90;;;;;;1897858;74;20224;-91
2021/08/30 00:07:02;;;;;;;;;;;25.30;99.90;;;;;;1898743;74;20181;-90
2021/08/30 00:09:36;;;;;;;;;;;25.30;99.90;;;;;;1889835;75;20217;-92
2021/08/30 00:12:06;;;;;;;;;;;25.40;99.90;;;;;;1896543;75;20565;-92
2021/08/30 00:14:50;;;;;;;;;;;25.40;99.90;;;;;;1898568;74;20157;-91
2021/08/30 00:17:23;;;;;;;;;;;25.50;99.90;;;;;;1899833;74;20194;-93
2021/08/30 00:20:33;;;;;;;;;;;25.50;99.90;;;;;;1891149;75;20218;-90
2021/08/30 00:22:59;;;;;;;;;;;25.60;99.90;;;;;;1869695;76;20175;-93
2021/08/30 00:25:30;;;;;;;;;;;25.70;99.90;;;;;;1906033;75;20245;-90
2021/08/30 00:28:00;;;;;;;;;;;25.70;99.90;;;;;;1899753;75;20193;-91
2021/08/30 00:30:29;;;;;;;;;;;25.80;99.90;;;;;;1912136;74;20244;-92
2021/08/30 00:32:59;;;;;;;;;;;25.80;99.90;;;;;;1909690;74;20233;-91
2021/08/30 00:35:29;;;;;;;;;;;25.90;99.90;;;;;;1903734;74;20298;-90
2021/08/30 00:37:58;;;;;;;;;;;25.90;99.90;;;;;;1882325;76;20213;-92
2021/08/30 00:40:31;;;;;;;;;;;25.90;99.90;;;;;;1959616;73;20498;-91
2021/08/30 00:42:59;;;;;;;;;;;26.00;99.90;;;;;;1954040;73;20646;-92
2021/08/30 00:45:30;;;;;;;;;;;26.00;99.90;;;;;;1950530;72;20175;-92
2021/08/30 00:48:01;;;;;;;;;;;26.00;99.90;;;;;;1959319;72;20132;-91
2021/08/30 00:50:30;;;;;;;;;;;26.10;99.90;;;;;;1953988;72;20225;-90
2021/08/30 00:53:00;;;;;;;;;;;26.20;99.90;;;;;;1957076;72;20216;-92
2021/08/30 00:55:30;;;;;;;;;;;26.20;99.90;;;;;;1955712;73;20171;-92
2021/08/30 00:58:00;;;;;;;;;;;26.20;99.90;;;;;;1952934;73;20250;-92
2021/08/30 01:00:30;;;;;;;;;;;26.20;99.90;;;;;;1957154;72;20170;-92
2021/08/30 01:03:00;;;;;;;;;;;26.20;99.90;;;;;;1952741;72;20213;-92
2021/08/30 01:05:31;;;;;;;;;;;26.30;99.90;;;;;;1948206;73;20178;-90
2021/08/30 01:08:02;;;;;;;;;;;26.30;99.90;;;;;;1952780;73;20144;-92
2021/08/30 01:10:33;;;;;;;;;;;26.40;99.90;;;;;;1947748;73;20258;-91
2021/08/30 01:13:04;;;;;;;;;;;26.50;99.90;;;;;;1957465;73;20116;-91
2021/08/30 01:15:40;;;;;;;;;;;26.50;99.90;;;;;;1898468;74;20209;-90
2021/08/30 01:18:10;;;;;;;;;;;26.60;99.90;;;;;;1949998;72;20470;-91
2021/08/30 01:20:40;;;;;;;;;;;26.60;99.90;;;;;;1960048;72;20205;-91
2021/08/30 01:23:14;;;;;;;;;;;26.70;99.90;;;;;;1909774;73;20237;-90
2021/08/30 01:29:01;;;;;;;;;;;26.80;99.90;;;;;;1931777;72;20247;-91
2021/08/30 01:31:32;;;;;;;;;;;26.90;99.90;;;;;;1948633;73;20179;-92
2021/08/30 01:34:03;;;;;;;;;;;27.00;99.90;;;;;;1937920;72;20275;-91
2021/08/30 01:36:33;;;;;;;;;;;27.10;99.90;;;;;;1938388;73;20128;-90
2021/08/30 01:39:05;;;;;;;;;;;27.10;99.90;;;;;;1942151;73;20123;-90
2021/08/30 01:41:36;;;;;;;;;;;27.20;99.90;;;;;;1949570;73;20474;-90
2021/08/30 01:44:10;;;;;;;;;;;27.20;99.90;;;;;;1950714;73;20191;-89
2021/08/30 01:46:39;;;;;;;;;;;27.30;99.90;;;;;;1942124;73;20172;-91
2021/08/30 01:49:14;;;;;;;;;;;27.30;99.90;;;;;;1943634;73;20214;-91
2021/08/30 01:51:49;;;;;;;;;;;27.40;99.90;;;;;;1946719;73;20187;-91
2021/08/30 01:54:20;;;;;;;;;;;27.50;99.90;;;;;;1936132;72;20187;-90
2021/08/30 01:56:56;;;;;;;;;;;27.50;99.90;;;;;;1952327;73;20515;-90
2021/08/30 02:01:59;;;;;;;;;;;27.60;99.90;;;;;;1941724;73;20179;-91
2021/08/30 02:04:32;;;;;;;;;;;27.70;99.90;;;;;;1949148;73;20182;-91
2021/08/30 02:07:05;;;;;;;;;;;27.80;99.90;;;;;;1945978;72;20182;-90
2021/08/30 02:09:35;;;;;;;;;;;27.90;99.90;;;;;;1946773;72;20156;-89
2021/08/30 02:12:09;;;;;;;;;;;28.00;99.90;;;;;;1947024;73;20183;-89
2021/08/30 02:14:39;;;;;;;;;;;28.10;99.90;;;;;;1871846;75;20242;-88
2021/08/30 02:17:10;;;;;;;;;;;28.20;99.90;;;;;;1871245;76;20261;-87
2021/08/30 02:19:46;;;;;;;;;;;28.30;99.90;;;;;;1856560;75;20432;-87
2021/08/30 02:22:17;;;;;;;;;;;28.40;99.90;;;;;;1860672;76;20437;-87
2021/08/30 02:24:48;;;;;;;;;;;28.50;99.90;;;;;;1886754;75;20133;-87
2021/08/30 02:27:19;;;;;;;;;;;28.60;99.90;;;;;;1874571;76;20204;-88
2021/08/30 02:29:50;;;;;;;;;;;28.70;99.90;;;;;;1873971;76;20171;-90
2021/08/30 02:32:20;;;;;;;;;;;28.80;99.90;;;;;;1882421;75;20515;-88
2021/08/30 02:34:51;;;;;;;;;;;28.90;99.90;;;;;;1885988;75;20278;-89
2021/08/30 02:37:27;;;;;;;;;;;29.00;99.60;;;;;;1888023;75;20280;-88
2021/08/30 02:39:56;;;;;;;;;;;29.10;99.90;;;;;;1890052;75;20158;-90
2021/08/30 02:42:38;;;;;;;;;;;29.30;99.90;;;;;;1915638;73;20200;-89
2021/08/30 02:45:05;;;;;;;;;;;29.40;99.60;;;;;;1876493;76;20238;-89
2021/08/30 02:47:35;;;;;;;;;;;29.50;99.30;;;;;;1910170;73;20153;-89
2021/08/30 02:50:06;;;;;;;;;;;29.60;98.90;;;;;;1909219;75;20205;-90
2021/08/30 02:52:38;;;;;;;;;;;29.80;99.30;;;;;;1875849;76;20166;-89
2021/08/30 02:55:09;;;;;;;;;;;29.90;98.90;;;;;;1889033;76;20208;-88
2021/08/30 02:57:39;;;;;;;;;;;29.90;97.60;;;;;;1861284;76;20226;-88
2021/08/30 03:00:09;;;;;;;;;;;29.90;97.90;;;;;;1881399;76;20180;-89
2021/08/30 03:02:39;;;;;;;;;;;29.90;97.30;;;;;;1876021;76;20243;-88
2021/08/30 03:05:11;;;;;;;;;;;29.90;95.90;;;;;;1911010;75;20161;-89
2021/08/30 03:07:41;;;;;;;;;;;29.90;97.80;;;;;;1865544;76;20258;-88
2021/08/30 03:10:11;;;;;;;;;;;30.00;97.10;;;;;;1875711;76;20481;-89
2021/08/30 03:12:42;;;;;;;;;;;30.10;96.30;;;;;;1910786;75;20137;-89
2021/08/30 03:15:13;;;;;;;;;;;30.30;96.10;;;;;;1883427;76;20187;-88
2021/08/30 03:17:44;;;;;;;;;;;30.40;96.40;;;;;;1858617;75;20177;-88
2021/08/30 03:20:15;;;;;;;;;;;30.50;95.30;;;;;;1882974;76;20179;-90
2021/08/30 03:22:46;;;;;;;;;;;30.60;95.20;;;;;;1874111;76;20216;-89
2021/08/30 03:25:17;;;;;;;;;;;30.70;94.90;;;;;;1884383;76;20134;-89
2021/08/30 03:27:48;;;;;;;;;;;30.70;94.90;;;;;;1906032;73;20209;-89
2021/08/30 03:30:18;;;;;;;;;;;30.80;95.60;;;;;;1904925;73;20189;-89
2021/08/30 03:32:48;;;;;;;;;;;30.90;94.90;;;;;;1875637;76;20219;-89
2021/08/30 03:35:19;;;;;;;;;;;30.90;95.30;;;;;;1883601;76;20156;-90
2021/08/30 03:37:49;;;;;;;;;;;30.90;94.90;;;;;;1882575;76;20183;-89
2021/08/30 03:40:20;;;;;;;;;;;30.90;94.50;;;;;;1874896;76;20199;-90
2021/08/30 03:42:50;;;;;;;;;;;30.90;95.10;;;;;;1906154;73;20276;-88
2021/08/30 03:45:20;;;;;;;;;;;31.00;94.90;;;;;;1880495;76;20191;-88
2021/08/30 03:47:50;;;;;;;;;;;30.90;95.70;;;;;;1867934;76;20187;-87
2021/08/30 03:50:20;;;;;;;;;;;30.90;95.20;;;;;;1867348;76;20213;-86
2021/08/30 03:52:49;;;;;;;;;;;30.90;94.80;;;;;;1880746;76;20245;-85
2021/08/30 03:55:22;;;;;;;;;;;30.90;94.20;;;;;;1877449;76;20205;-88
2021/08/30 03:57:53;;;;;;;;;;;30.90;94.90;;;;;;1876858;76;20258;-90
2021/08/30 04:00:25;;;;;;;;;;;31.00;95.00;;;;;;1891780;75;20185;-91
2021/08/30 04:03:04;;;;;;;;;;;31.00;95.60;;;;;;1917856;74;20217;-89
2021/08/30 04:05:47;;;;;;;;;;;31.10;94.40;;;;;;1912262;74;20175;-88
2021/08/30 04:08:19;;;;;;;;;;;31.10;93.00;;;;;;1867495;76;20148;-89
2021/08/30 04:10:49;;;;;;;;;;;31.00;93.80;;;;;;1863597;76;20227;-89
2021/08/30 04:13:19;;;;;;;;;;;31.00;94.90;;;;;;1855468;77;20122;-89
2021/08/30 04:15:53;;;;;;;;;;;30.80;94.00;;;;;;1879824;76;20633;-87
2021/08/30 04:18:32;;;;;;;;;;;30.70;93.40;;;;;;1871233;76;20459;-88
2021/08/30 04:21:02;;;;;;;;;;;30.70;93.90;;;;;;1908276;75;20213;-89
2021/08/30 04:23:33;;;;;;;;;;;30.80;95.10;;;;;;1912087;75;20262;-89
2021/08/30 04:26:25;;;;;;;;;;;30.90;94.00;;;;;;1850627;76;20462;-90
2021/08/30 04:28:54;;;;;;;;;;;31.00;92.40;;;;;;1877095;76;20183;-88
2021/08/30 04:31:24;;;;;;;;;;;31.00;92.10;;;;;;1882005;76;20144;-89
2021/08/30 04:34:00;;;;;;;;;;;30.90;93.00;;;;;;1917850;75;20178;-89
2021/08/30 04:36:30;;;;;;;;;;;30.80;93.30;;;;;;1869691;76;20218;-89
2021/08/30 04:39:01;;;;;;;;;;;30.80;93.40;;;;;;1879746;76;20573;-89
2021/08/30 04:41:42;;;;;;;;;;;30.80;93.00;;;;;;1884272;76;20192;-91
2021/08/30 04:44:39;;;;;;;;;;;30.70;93.30;;;;;;1865254;76;20215;-90
2021/08/30 04:47:09;;;;;;;;;;;30.90;92.40;;;;;;1888306;73;20183;-91
2021/08/30 04:49:39;;;;;;;;;;;31.00;93.30;;;;;;1868185;73;20284;-91
2021/08/30 04:52:10;;;;;;;;;;;31.20;93.00;;;;;;1856234;73;20139;-89
2021/08/30 04:54:39;;;;;;;;;;;31.30;93.10;;;;;;1852021;76;20234;-90
2021/08/30 04:57:14;;;;;;;;;;;31.50;92.20;;;;;;1906314;75;20487;-90
2021/08/30 04:59:49;;;;;;;;;;;31.70;93.20;;;;;;1899514;75;20122;-89
2021/08/30 05:02:18;;;;;;;;;;;31.90;92.20;;;;;;1868505;76;20203;-90
2021/08/30 05:04:49;;;;;;;;;;;32.00;92.30;;;;;;1876713;76;20465;-89
2021/08/30 05:07:20;;;;;;;;;;;32.10;91.40;;;;;;1861897;76;20142;-90
2021/08/30 05:09:53;;;;;;;;;;;32.30;91.40;;;;;;1869781;76;20163;-89
2021/08/30 05:12:31;;;;;;;;;;;32.30;90.40;;;;;;1855426;75;20439;-91
2021/08/30 05:15:09;;;;;;;;;;;32.30;91.90;;;;;;1862558;76;20187;-90
2021/08/30 05:17:53;;;;;;;;;;;32.20;91.20;;;;;;1881380;76;20180;-90
2021/08/30 05:20:25;;;;;;;;;;;32.10;91.20;;;;;;1865064;76;20116;-89
2021/08/30 05:22:55;;;;;;;;;;;32.10;89.10;;;;;;1856568;76;20432;-90
2021/08/30 05:25:25;;;;;;;;;;;32.00;90.80;;;;;;1850692;77;20435;-89
2021/08/30 05:27:54;;;;;;;;;;;32.10;91.00;;;;;;1845591;77;20167;-90
2021/08/30 05:30:24;;;;;;;;;;;32.10;90.10;;;;;;1866693;77;20669;-89
2021/08/30 05:32:53;;;;;;;;;;;32.20;89.00;;;;;;1866033;75;20211;-90
2021/08/30 05:35:23;;;;;;;;;;;32.20;90.50;;;;;;1905452;75;20409;-90
2021/08/30 05:37:53;;;;;;;;;;;32.30;90.30;;;;;;1885517;76;20129;-90
2021/08/30 05:40:22;;;;;;;;;;;32.30;88.80;;;;;;1888886;76;20114;-90
2021/08/30 05:42:52;;;;;;;;;;;32.40;89.50;;;;;;1889684;76;20285;-92
2021/08/30 05:45:24;;;;;;;;;;;32.50;89.70;;;;;;1953954;73;20136;-90
2021/08/30 05:47:55;;;;;;;;;;;32.50;89.30;;;;;;1961486;72;20502;-90
2021/08/30 05:50:25;;;;;;;;;;;32.70;90.80;;;;;;1961742;72;20480;-90
2021/08/30 05:52:55;;;;;;;;;;;32.70;90.80;;;;;;1962249;73;20194;-90
2021/08/30 05:55:25;;;;;;;;;;;32.90;90.00;;;;;;1962012;73;20209;-92
2021/08/30 05:57:54;;;;;;;;;;;32.90;89.70;;;;;;1961527;73;20245;-90
2021/08/30 06:00:24;;;;;;;;;;;33.00;86.90;;;;;;1945936;73;20193;-91
2021/08/30 06:02:54;;;;;;;;;;;33.00;88.00;;;;;;1888082;75;20190;-91
2021/08/30 06:05:24;;;;;;;;;;;33.00;86.90;;;;;;1896678;75;20268;-88
2021/08/30 06:07:54;;;;;;;;;;;33.00;87.00;;;;;;1954578;73;20237;-90
2021/08/30 06:10:24;;;;;;;;;;;33.00;87.10;;;;;;1940180;73;20436;-90
2021/08/30 06:12:53;;;;;;;;;;;33.00;82.80;;;;;;1954647;73;20178;-90
2021/08/30 06:15:27;;;;;;;;;;;33.00;85.90;;;;;;1960299;73;20155;-89
2021/08/30 06:18:28;;;;;;;;;;;;;;;;;;;;;
2021/08/30 06:21:01;;;;;;;;;;;32.90;84.20;;;;;;1935831;73;20132;-89
2021/08/30 06:23:32;;;;;;;;;;;32.90;86.00;;;;;;1937082;72;20178;-89
2021/08/30 06:26:02;;;;;;;;;;;32.90;86.00;;;;;;1975982;72;20318;-92
2021/08/30 06:28:32;;;;;;;;;;;32.90;86.00;;;;;;1938525;73;20188;-89
2021/08/30 06:31:02;;;;;;;;;;;32.90;86.90;;;;;;1961793;72;20226;-91
2021/08/30 06:33:32;;;;;;;;;;;32.90;85.90;;;;;;1960676;72;20214;-89
2021/08/30 06:36:02;;;;;;;;;;;32.90;85.10;;;;;;1958935;73;20148;-90
2021/08/30 06:38:31;;;;;;;;;;;32.90;85.00;;;;;;1949885;73;20408;-89
2021/08/30 06:41:01;;;;;;;;;;;33.00;81.80;;;;;;1936915;73;20234;-91
2021/08/30 06:43:31;;;;;;;;;;;32.90;84.80;;;;;;1884303;76;20263;-90
2021/08/30 06:46:04;;;;;;;;;;;32.90;86.00;;;;;;1874849;76;20148;-89
2021/08/30 06:48:47;;;;;;;;;;;32.80;84.80;;;;;;1875104;76;20191;-91
2021/08/30 06:51:19;;;;;;;;;;;32.60;83.60;;;;;;1913598;73;20220;-91
2021/08/30 06:53:51;;;;;;;;;;;32.50;84.10;;;;;;1881109;76;20094;-89
2021/08/30 06:56:22;;;;;;;;;;;32.60;84.40;;;;;;1854828;77;20182;-91
2021/08/30 06:59:10;;;;;;;;;;;32.70;83.40;;;;;;1882084;76;20184;-91
2021/08/30 07:01:40;;;;;;;;;;;32.70;84.10;;;;;;1896704;75;20138;-89
2021/08/30 07:04:10;;;;;;;;;;;32.80;83.70;;;;;;1878840;76;20124;-92
2021/08/30 07:06:41;;;;;;;;;;;32.90;83.00;;;;;;1911298;75;20223;-90
2021/08/30 07:09:14;;;;;;;;;;;32.90;84.70;;;;;;1881455;76;20148;-91
2021/08/30 07:11:54;;;;;;;;;;;32.90;84.90;;;;;;1902738;75;20203;-89
2021/08/30 07:14:23;;;;;;;;;;;32.80;85.30;;;;;;1883055;75;20211;-89
2021/08/30 07:16:56;;;;;;;;;;;32.70;85.80;;;;;;1875215;76;20281;-90
2021/08/30 07:19:26;;;;;;;;;;;32.50;87.30;;;;;;1873055;76;20209;-90
2021/08/30 07:22:13;;;;;;;;;;;32.40;86.80;;;;;;1887152;76;20227;-88
2021/08/30 07:24:45;;;;;;;;;;;32.20;86.20;;;;;;1889353;75;20269;-89
2021/08/30 07:27:19;;;;;;;;;;;32.00;87.50;;;;;;1868782;76;20122;-91
2021/08/30 07:30:12;;;;;;;;;;;31.90;88.30;;;;;;1860865;76;20127;-90
2021/08/30 07:32:41;;;;;;;;;;;31.70;88.90;;;;;;1863762;76;20176;-88
2021/08/30 07:35:29;;;;;;;;;;;31.50;88.00;;;;;;1914674;74;20302;-89
2021/08/30 07:37:58;;;;;;;;;;;31.30;87.60;;;;;;1878792;75;20136;-86
2021/08/30 07:40:31;;;;;;;;;;;31.00;88.40;;;;;;1962189;73;20442;-90
2021/08/30 07:43:00;;;;;;;;;;;30.60;88.70;;;;;;1961870;73;20136;-90
2021/08/30 07:45:31;;;;;;;;;;;30.20;89.90;;;;;;1958790;73;20225;-88
2021/08/30 07:48:04;;;;;;;;;;;30.00;90.80;;;;;;1963951;73;20498;-89
2021/08/30 07:50:37;;;;;;;;;;;29.70;91.60;;;;;;1951302;73;20183;-90
2021/08/30 07:53:05;;;;;;;;;;;29.40;92.10;;;;;;1951145;73;20163;-90
2021/08/30 07:55:38;;;;;;;;;;;29.30;92.70;;;;;;1956307;73;20194;-88
2021/08/30 07:58:16;;;;;;;;;;;29.20;93.40;;;;;;1960329;73;20206;-87
2021/08/30 08:00:38;;;;;;;;;;;29.10;93.80;;;;;;1950088;73;20612;-91
2021/08/30 08:03:11;;;;;;;;;;;29.00;94.00;;;;;;1963733;73;20416;-90
2021/08/30 08:05:41;;;;;;;;;;;29.00;94.50;;;;;;1960448;73;20182;-89
2021/08/30 08:08:11;;;;;;;;;;;29.00;94.70;;;;;;1954262;73;20202;-90
2021/08/30 08:10:44;;;;;;;;;;;28.90;93.50;;;;;;1962586;73;20221;-90
2021/08/30 08:13:12;;;;;;;;;;;28.90;94.60;;;;;;1960453;73;20273;-90
2021/08/30 08:15:42;;;;;;;;;;;29.00;95.40;;;;;;1955578;73;20202;-91
2021/08/30 08:18:12;;;;;;;;;;;28.90;95.60;;;;;;1952686;73;20205;-90
2021/08/30 08:20:42;;;;;;;;;;;28.90;95.60;;;;;;1957670;73;20175;-87
2021/08/30 08:23:12;;;;;;;;;;;28.90;95.80;;;;;;1946354;73;20237;-88
2021/08/30 08:25:41;;;;;;;;;;;28.80;95.70;;;;;;1947789;72;20218;-89
2021/08/30 08:28:11;;;;;;;;;;;28.80;95.10;;;;;;1954288;73;20465;-90
2021/08/30 08:30:41;;;;;;;;;;;28.80;95.20;;;;;;1952917;73;20151;-88
2021/08/30 08:33:11;;;;;;;;;;;28.80;95.00;;;;;;1959859;73;20722;-89
2021/08/30 08:35:42;;;;;;;;;;;28.80;95.10;;;;;;1949594;73;20157;-87
2021/08/30 08:38:13;;;;;;;;;;;28.80;95.10;;;;;;1955263;73;20217;-77
2021/08/30 08:40:42;;;;;;;;;;;28.90;95.00;;;;;;1953204;73;20135;-78
2021/08/30 08:43:13;;;;;;;;;;;28.90;95.00;;;;;;1947837;73;20132;-77
2021/08/30 08:45:44;;;;;;;;;;;28.90;94.90;;;;;;1949291;73;20231;-76
2021/08/30 08:48:14;;;;;;;;;;;28.80;95.50;;;;;;1945589;72;20140;-74
2021/08/30 08:50:44;;;;;;;;;;;28.90;96.00;;;;;;1952758;72;20219;-75
2021/08/30 08:53:14;;;;;;;;;;;28.80;95.80;;;;;;1951497;73;20256;-76
2021/08/30 08:55:44;;;;;;;;;;;28.80;95.80;;;;;;1957778;73;20222;-77
2021/08/30 08:58:14;;;;;;;;;;;28.80;95.40;;;;;;1960896;72;20440;-77
2021/08/30 09:00:46;;;;;;;;;;;28.80;95.20;;;;;;1957043;73;20616;-76
2021/08/30 09:03:17;;;;;;;;;;;28.70;95.20;;;;;;1952754;73;20544;-75
2021/08/30 09:05:46;;;;;;;;;;;28.70;95.10;;;;;;1961584;73;20187;-76
2021/08/30 09:08:17;;;;;;;;;;;28.70;95.60;;;;;;1954569;73;20171;-76
2021/08/30 09:10:47;;;;;;;;;;;28.60;95.30;;;;;;1946675;73;20238;-77
2021/08/30 09:13:16;;;;;;;;;;;28.60;95.40;;;;;;1960156;72;20439;-76
2021/08/30 09:15:46;;;;;;;;;;;28.60;96.40;;;;;;1957192;73;20441;-76
2021/08/30 09:18:16;;;;;;;;;;;28.50;96.20;;;;;;1954422;73;20211;-77
2021/08/30 09:20:45;;;;;;;;;;;28.50;96.10;;;;;;1962475;73;20194;-76
2021/08/30 09:23:16;;;;;;;;;;;28.50;96.50;;;;;;1955695;73;20166;-76
2021/08/30 09:25:45;;;;;;;;;;;28.50;96.60;;;;;;1950452;73;20245;-78
2021/08/30 09:28:15;;;;;;;;;;;28.40;96.30;;;;;;1957271;73;20245;-75
2021/08/30 09:30:46;;;;;;;;;;;28.40;96.00;;;;;;1955396;73;20177;-75
2021/08/30 09:33:16;;;;;;;;;;;28.40;96.00;;;;;;1956916;72;20265;-77
2021/08/30 09:35:47;;;;;;;;;;;28.40;96.60;;;;;;1956474;73;20328;-77
2021/08/30 09:38:19;;;;;;;;;;;28.50;96.60;;;;;;1953937;73;20237;-78
2021/08/30 09:40:49;;;;;;;;;;;28.50;97.20;;;;;;1952903;73;20147;-78
2021/08/30 09:43:20;;;;;;;;;;;28.40;97.50;;;;;;1961522;73;20211;-77
2021/08/30 09:45:49;;;;;;;;;;;28.40;98.10;;;;;;1962578;73;20170;-79
2021/08/30 09:48:20;;;;;;;;;;;28.30;97.90;;;;;;1962372;73;20228;-78
2021/08/30 09:50:50;;;;;;;;;;;28.40;97.60;;;;;;1952994;73;20212;-78
2021/08/30 09:53:19;;;;;;;;;;;28.40;97.60;;;;;;1958159;73;20480;-76
2021/08/30 09:55:49;;;;;;;;;;;28.40;97.60;;;;;;1951133;73;20223;-76
2021/08/30 09:58:19;;;;;;;;;;;28.40;98.10;;;;;;1960150;73;20218;-75
2021/08/30 10:00:50;;;;;;;;;;;28.40;98.40;;;;;;1960784;73;20218;-76
2021/08/30 10:03:21;;;;;;;;;;;28.40;98.20;;;;;;1958353;73;20204;-76
2021/08/30 10:05:51;;;;;;;;;;;28.40;97.90;;;;;;1960380;73;20466;-77
2021/08/30 10:08:22;;;;;;;;;;;28.40;97.60;;;;;;1961802;73;20204;-77
2021/08/30 10:10:51;;;;;;;;;;;28.40;97.50;;;;;;1959029;73;20200;-75
2021/08/30 10:13:21;;;;;;;;;;;28.40;97.30;;;;;;1958951;73;20125;-76
2021/08/30 10:15:51;;;;;;;;;;;28.40;97.40;;;;;;1963908;73;20226;-76
2021/08/30 10:18:21;;;;;;;;;;;28.50;97.70;;;;;;1952384;73;20203;-76
2021/08/30 10:20:50;;;;;;;;;;;28.50;97.40;;;;;;1959825;73;20186;-77
2021/08/30 10:23:20;;;;;;;;;;;28.50;97.30;;;;;;1961046;73;20143;-74
2021/08/30 10:25:51;;;;;;;;;;;28.50;97.40;;;;;;1956244;73;20391;-76
2021/08/30 10:28:20;;;;;;;;;;;28.50;97.20;;;;;;1960241;73;20207;-76
2021/08/30 10:30:54;;;;;;;;;;;28.50;97.20;;;;;;1960851;73;20178;-76
2021/08/30 10:33:24;;;;;;;;;;;28.50;97.10;;;;;;1947447;73;20228;-76
2021/08/30 10:35:56;;;;;;;;;;;28.60;97.40;;;;;;1958314;73;20501;-77
2021/08/30 10:38:24;;;;;;;;;;;28.60;97.50;;;;;;1962774;73;20210;-76
2021/08/30 10:40:57;;;;;;;;;;;28.60;97.50;;;;;;1960837;73;20497;-76
2021/08/30 10:43:29;;;;;;;;;;;28.60;96.80;;;;;;1959542;72;20236;-77
2021/08/30 10:45:57;;;;;;;;;;;28.60;96.70;;;;;;1948502;72;20185;-76
2021/08/30 10:48:28;;;;;;;;;;;28.50;96.70;;;;;;1954604;73;20190;-76
2021/08/30 10:51:01;;;;;;;;;;;28.50;97.10;;;;;;1952993;72;20966;-76
2021/08/30 10:53:30;;;;;;;;;;;28.50;97.20;;;;;;1956815;72;20303;-76
2021/08/30 10:56:07;;;;;;;;;;;28.40;97.60;;;;;;1912943;75;20546;-75
2021/08/30 10:58:32;;;;;;;;;;;28.40;97.40;;;;;;1869664;76;20187;-78
2021/08/30 11:01:03;;;;;;;;;;;28.40;97.50;;;;;;1963070;73;20232;-77
2021/08/30 11:03:35;;;;;;;;;;;28.40;97.50;;;;;;1954711;73;20162;-77
2021/08/30 11:06:07;;;;;;;;;;;28.40;97.60;;;;;;1957675;72;20218;-78
2021/08/30 11:08:38;;;;;;;;;;;28.40;97.60;;;;;;1924737;74;20174;-78
2021/08/30 11:11:09;;;;;;;;;;;28.40;97.70;;;;;;1913705;74;20242;-77
2021/08/30 11:13:39;;;;;;;;;;;28.40;97.60;;;;;;1878053;76;20210;-76
2021/08/30 11:16:15;;;;;;;;;;;28.40;97.60;;;;;;1894907;75;20486;-76
2021/08/30 11:18:46;;;;;;;;;;;28.40;97.60;;;;;;1847968;77;20542;-78
2021/08/30 11:21:26;;;;;;;;;;;28.30;97.90;;;;;;1907423;75;20205;-77
2021/08/30 11:23:56;;;;;;;;;;;28.30;98.00;;;;;;1911764;74;20131;-77
2021/08/30 11:26:28;;;;;;;;;;;28.20;98.40;;;;;;1943048;73;20202;-78
2021/08/30 11:28:58;;;;;;;;;;;28.20;98.30;;;;;;1952976;73;20155;-77
2021/08/30 11:31:30;;;;;;;;;;;28.10;98.60;;;;;;1958555;73;20308;-78
2021/08/30 11:33:59;;;;;;;;;;;28.10;98.60;;;;;;1961956;73;20172;-76
2021/08/30 11:36:29;;;;;;;;;;;28.10;98.80;;;;;;1955999;73;20231;-78
2021/08/30 11:38:59;;;;;;;;;;;28.10;99.20;;;;;;1945048;73;20171;-77
2021/08/30 11:41:30;;;;;;;;;;;28.10;99.00;;;;;;1949656;73;20226;-78
2021/08/30 11:44:01;;;;;;;;;;;28.00;99.00;;;;;;1948835;73;20152;-80
2021/08/30 11:46:32;;;;;;;;;;;28.00;99.10;;;;;;1956150;73;20171;-78
2021/08/30 11:49:03;;;;;;;;;;;28.00;99.40;;;;;;1938605;73;20179;-82
2021/08/30 11:51:34;;;;;;;;;;;27.90;99.50;;;;;;1951544;73;20585;-77
2021/08/30 11:54:05;;;;;;;;;;;27.90;99.40;;;;;;1954262;73;20125;-79
2021/08/30 11:56:39;;;;;;;;;;;27.90;99.50;;;;;;1958016;73;20222;-77
2021/08/30 11:59:07;;;;;;;;;;;27.80;99.80;;;;;;1957934;73;20252;-79
2021/08/30 12:01:43;;;;;;;;;;;27.90;99.30;;;;;;1953750;73;20127;-76
2021/08/30 12:04:13;;;;;;;;;;;27.90;99.40;;;;;;1946678;73;20187;-79
2021/08/30 12:06:50;;;;;;;;;;;27.90;99.30;;;;;;1959234;72;20248;-79
2021/08/30 12:09:19;;;;;;;;;;;27.90;99.20;;;;;;1959322;72;20158;-78
2021/08/30 12:11:50;;;;;;;;;;;28.00;99.00;;;;;;1959834;72;20189;-78
2021/08/30 12:14:24;;;;;;;;;;;28.00;99.20;;;;;;1964479;73;20220;-78
2021/08/30 12:16:53;;;;;;;;;;;28.00;99.00;;;;;;1955408;73;20225;-79
2021/08/30 12:19:27;;;;;;;;;;;28.10;99.00;;;;;;1954413;73;20162;-78
2021/08/30 12:21:59;;;;;;;;;;;28.10;99.10;;;;;;1955822;73;20208;-78
2021/08/30 12:24:29;;;;;;;;;;;28.10;99.00;;;;;;1957545;73;20253;-78
2021/08/30 12:27:00;;;;;;;;;;;28.10;99.20;;;;;;1958747;73;20198;-78
2021/08/30 12:29:31;;;;;;;;;;;28.10;99.30;;;;;;1916952;75;20165;-79
2021/08/30 12:32:04;;;;;;;;;;;28.10;99.70;;;;;;1961799;73;20176;-79
2021/08/30 12:34:33;;;;;;;;;;;28.10;99.20;;;;;;1960492;73;20213;-78
2021/08/30 12:37:03;;;;;;;;;;;28.10;99.40;;;;;;1958693;72;20129;-77
2021/08/30 12:39:33;;;;;;;;;;;28.20;99.60;;;;;;1955130;73;20205;-76
2021/08/30 12:42:02;;;;;;;;;;;28.20;99.60;;;;;;1963947;73;20133;-77
2021/08/30 12:44:32;;;;;;;;;;;28.20;99.70;;;;;;1958482;72;20119;-78
2021/08/30 12:47:02;;;;;;;;;;;28.10;99.80;;;;;;1959132;73;20529;-76
2021/08/30 12:49:32;;;;;;;;;;;28.10;99.80;;;;;;1963581;73;20242;-77
2021/08/30 12:52:06;;;;;;;;;;;28.10;99.60;;;;;;1955580;73;20175;-77
2021/08/30 12:54:39;;;;;;;;;;;28.00;99.30;;;;;;1957959;73;20197;-78
2021/08/30 12:57:09;;;;;;;;;;;28.00;98.90;;;;;;1938770;73;20547;-78
2021/08/30 12:59:39;;;;;;;;;;;28.00;98.90;;;;;;1958866;73;20199;-78
2021/08/30 13:02:08;;;;;;;;;;;28.00;98.80;;;;;;1958552;73;20178;-78
2021/08/30 13:04:38;;;;;;;;;;;28.00;99.00;;;;;;1957996;73;20457;-77
2021/08/30 13:07:07;;;;;;;;;;;28.00;99.40;;;;;;1955456;72;20482;-78
2021/08/30 13:09:37;;;;;;;;;;;28.00;99.80;;;;;;1957610;73;20206;-78
2021/08/30 13:12:07;;;;;;;;;;;27.90;99.90;;;;;;1945320;73;20548;-80
2021/08/30 13:14:39;;;;;;;;;;;27.80;99.90;;;;;;1947297;72;20220;-79
2021/08/30 13:17:09;;;;;;;;;;;27.80;99.90;;;;;;1883971;75;20180;-79
2021/08/30 13:19:39;;;;;;;;;;;27.90;99.90;;;;;;1879266;75;20209;-90
2021/08/30 13:22:10;;;;;;;;;;;27.90;99.90;;;;;;1913558;74;20251;-88
2021/08/30 13:24:40;;;;;;;;;;;27.90;99.70;;;;;;1952160;72;20218;-87
2021/08/30 13:27:12;;;;;;;;;;;27.90;99.10;;;;;;1963851;72;20208;-89
2021/08/30 13:29:43;;;;;;;;;;;28.00;99.30;;;;;;1958272;72;20741;-88
2021/08/30 13:32:16;;;;;;;;;;;28.00;99.30;;;;;;1960390;73;20275;-88
2021/08/30 13:34:46;;;;;;;;;;;28.00;99.30;;;;;;1956281;72;20173;-88
2021/08/30 13:37:18;;;;;;;;;;;28.00;99.30;;;;;;1956991;73;20144;-88
2021/08/30 13:39:47;;;;;;;;;;;28.10;99.30;;;;;;1952935;73;20120;-88
2021/08/30 13:42:19;;;;;;;;;;;28.10;99.20;;;;;;1930916;73;20523;-89
2021/08/30 13:44:53;;;;;;;;;;;28.00;99.10;;;;;;1932674;73;20199;-89
2021/08/30 13:47:24;;;;;;;;;;;28.10;98.90;;;;;;1945370;73;20167;-88
2021/08/30 13:50:01;;;;;;;;;;;28.10;98.90;;;;;;1946559;73;20407;-89
2021/08/30 13:52:25;;;;;;;;;;;28.00;99.00;;;;;;1939018;73;20476;-87
2021/08/30 13:54:56;;;;;;;;;;;28.10;99.10;;;;;;1944057;72;20209;-88
2021/08/30 13:57:28;;;;;;;;;;;28.00;98.90;;;;;;1940620;73;20191;-89
2021/08/30 13:59:57;;;;;;;;;;;28.10;98.80;;;;;;1951936;72;20486;-88
2021/08/30 14:02:29;;;;;;;;;;;28.10;98.70;;;;;;1902300;75;20135;-89
2021/08/30 14:05:01;;;;;;;;;;;28.10;98.70;;;;;;1902144;75;20386;-89
2021/08/30 14:07:31;;;;;;;;;;;28.00;98.60;;;;;;1899491;75;20245;-88
2021/08/30 14:10:02;;;;;;;;;;;28.00;98.60;;;;;;1866058;76;20192;-90
2021/08/30 14:12:32;;;;;;;;;;;28.00;98.50;;;;;;1861238;76;20188;-89
2021/08/30 14:15:02;;;;;;;;;;;28.00;98.70;;;;;;1868376;75;20155;-89
2021/08/30 14:17:32;;;;;;;;;;;28.00;99.40;;;;;;1858327;76;20183;-91
2021/08/30 14:20:30;;;;;;;;;;;28.00;99.10;;;;;;1854480;76;20245;-91
2021/08/30 14:22:45;;;;;;;;;;;28.00;99.10;;;;;;1858457;76;20193;-92
2021/08/30 14:25:24;;;;;;;;;;;27.90;99.00;;;;;;1864322;76;20180;-93
2021/08/30 14:27:55;;;;;;;;;;;28.00;98.80;;;;;;1872715;76;20285;-94
2021/08/30 14:30:38;;;;;;;;;;;;;;;;;;;;;
2021/08/30 14:33:11;;;;;;;;;;;27.90;98.60;;;;;;1870760;75;20226;-92
2021/08/30 14:35:58;;;;;;;;;;;28.00;98.60;;;;;;1886245;76;20150;-94
2021/08/30 14:38:29;;;;;;;;;;;28.00;98.60;;;;;;1905446;75;20279;-95
2021/08/30 14:41:23;;;;;;;;;;;28.00;98.60;;;;;;1896707;74;20228;-95
2021/08/30 14:44:34;;;;;;;;;;;28.00;98.60;;;;;;1881938;75;20140;-92
2021/08/30 14:47:33;;;;;;;;;;;;;;;;;;;;;
2021/08/30 14:50:24;;;;;;;;;;;27.90;98.50;;;;;;1816921;78;20193;-94
2021/08/30 14:53:33;;;;;;;;;;;;;;;;;;;;;
2021/08/30 14:59:46;;;;;;;;;;;28.00;98.40;;;;;;1935559;72;20279;-90